Time;durP1;ratioP1;P1;durP2;ratioP2;P2;SDS_P1;SDS_P2;PMS_P1;PMS_P2;Temp;Humidity;BMP_temperature;BMP_pressure;BME280_temperature;BME280_humidity;BME280_pressure;Samples;Min_cycle;Max_cycle;Signal;HPM_P1;HPM_P2
2023/06/14 00:00:40;;;;;;;33.55;24.85;;;19.30;74.70;;;;;;5103602;28;20023;-46
2023/06/14 00:03:10;;;;;;;92.68;54.88;;;19.30;75.00;;;;;;5095359;28;20077;-45
2023/06/14 00:05:42;;;;;;;12.77;6.80;;;19.40;75.70;;;;;;5095885;28;20016;-46
2023/06/14 00:08:09;;;;;;;8.98;5.50;;;19.30;75.30;;;;;;5094512;28;20107;-45
2023/06/14 00:10:36;;;;;;;5.30;4.80;;;19.30;75.60;;;;;;5112970;28;20023;-48
2023/06/14 00:13:03;;;;;;;11.27;4.88;;;19.20;75.70;;;;;;5112019;28;20035;-49
2023/06/14 00:15:30;;;;;;;5.65;5.13;;;19.20;76.00;;;;;;5112467;28;20031;-52
2023/06/14 00:17:59;;;;;;;8.23;4.88;;;19.10;76.10;;;;;;5113032;28;20111;-49
2023/06/14 00:20:25;;;;;;;7.75;5.60;;;19.10;76.30;;;;;;5112798;28;20043;-50
2023/06/14 00:22:51;;;;;;;5.75;4.65;;;19.00;76.40;;;;;;5112280;28;20051;-50
2023/06/14 00:25:17;;;;;;;8.35;5.30;;;19.00;76.50;;;;;;5112405;28;20020;-51
2023/06/14 00:27:42;;;;;;;5.97;4.60;;;18.90;76.50;;;;;;5112933;28;20023;-47
2023/06/14 00:30:10;;;;;;;9.10;5.40;;;18.90;76.90;;;;;;5094502;28;20392;-46
2023/06/14 00:32:35;;;;;;;8.65;4.82;;;18.90;76.80;;;;;;5111994;28;20028;-47
2023/06/14 00:35:01;;;;;;;6.78;4.35;;;18.80;76.70;;;;;;5112251;28;20038;-46
2023/06/14 00:37:26;;;;;;;7.90;5.00;;;18.80;76.90;;;;;;5094362;28;20475;-52
2023/06/14 00:39:51;;;;;;;8.02;5.78;;;18.80;77.10;;;;;;5112382;28;20039;-49
2023/06/14 00:42:25;;;;;;;7.47;5.85;;;18.80;77.60;;;;;;5112014;28;20111;-47
2023/06/14 00:44:50;;;;;;;10.82;5.00;;;18.70;77.30;;;;;;5111108;28;20081;-48
2023/06/14 00:47:16;;;;;;;5.70;5.00;;;18.70;77.40;;;;;;5112255;28;20023;-50
2023/06/14 00:49:41;;;;;;;7.47;4.43;;;18.70;77.30;;;;;;5112258;28;20234;-45
2023/06/14 00:52:07;;;;;;;5.25;4.65;;;18.70;77.40;;;;;;5094331;28;20020;-45
2023/06/14 00:54:33;;;;;;;7.57;4.60;;;18.60;77.50;;;;;;5112340;28;20023;-50
2023/06/14 00:56:58;;;;;;;10.43;4.82;;;18.60;77.40;;;;;;5112059;28;20062;-52
2023/06/14 00:59:25;;;;;;;9.05;4.78;;;18.60;77.50;;;;;;5112059;28;20032;-50
2023/06/14 01:01:50;;;;;;;9.82;5.35;;;18.60;77.40;;;;;;5111593;28;20024;-50
2023/06/14 01:04:16;;;;;;;5.60;4.82;;;18.60;77.60;;;;;;5111650;28;20024;-48
2023/06/14 01:07:13;;;;;;;5.10;4.60;;;18.60;77.60;;;;;;5111942;28;20022;-49
2023/06/14 01:10:07;;;;;;;5.72;4.55;;;18.60;77.90;;;;;;5112057;28;20032;-52
2023/06/14 01:12:47;;;;;;;7.47;5.35;;;18.50;77.90;;;;;;5110446;28;20023;-47
2023/06/14 01:15:14;;;;;;;5.80;4.47;;;18.50;78.00;;;;;;5111584;28;20528;-47
2023/06/14 01:17:43;;;;;;;7.60;4.72;;;18.40;78.20;;;;;;5112009;28;20015;-50
2023/06/14 01:20:14;;;;;;;7.35;4.53;;;18.40;78.30;;;;;;5112248;28;20015;-47
2023/06/14 01:22:48;;;;;;;5.15;4.63;;;18.40;78.40;;;;;;5111514;28;20028;-49
2023/06/14 01:25:16;;;;;;;6.43;4.55;;;18.30;78.70;;;;;;5111674;28;20028;-45
2023/06/14 01:27:42;;;;;;;6.28;4.20;;;18.30;78.70;;;;;;5111803;28;20028;-47
2023/06/14 01:30:09;;;;;;;6.55;4.13;;;18.30;79.10;;;;;;5112064;28;20019;-47
2023/06/14 01:32:36;;;;;;;6.40;4.20;;;18.30;79.20;;;;;;5111412;28;20436;-49
2023/06/14 01:35:02;;;;;;;5.13;4.35;;;18.30;79.20;;;;;;5111264;28;20056;-49
2023/06/14 01:37:30;;;;;;;9.27;4.55;;;18.30;79.20;;;;;;5111724;28;20073;-50
2023/06/14 01:39:56;;;;;;;7.82;5.05;;;18.20;79.20;;;;;;5111705;28;20027;-50
2023/06/14 01:42:23;;;;;;;10.43;4.95;;;18.20;79.40;;;;;;5111179;28;20027;-51
2023/06/14 01:44:49;;;;;;;4.50;4.10;;;18.10;79.50;;;;;;5111192;28;20076;-52
2023/06/14 01:47:15;;;;;;;8.45;4.75;;;18.20;79.60;;;;;;5111593;28;20089;-53
2023/06/14 01:49:40;;;;;;;6.88;5.00;;;18.20;79.70;;;;;;5111395;28;20024;-52
2023/06/14 01:52:09;;;;;;;10.10;4.82;;;18.10;79.80;;;;;;5092892;28;20445;-48
2023/06/14 01:54:37;;;;;;;5.03;4.50;;;18.00;80.00;;;;;;5111272;28;20019;-53
2023/06/14 01:57:03;;;;;;;6.43;4.78;;;18.00;80.20;;;;;;5113799;28;20047;-51
2023/06/14 01:59:31;;;;;;;5.45;4.57;;;17.90;80.40;;;;;;5115542;28;20027;-48
2023/06/14 02:01:56;;;;;;;14.73;4.30;;;17.90;80.60;;;;;;5115073;28;20491;-49
2023/06/14 02:04:22;;;;;;;6.43;4.25;;;17.90;80.80;;;;;;5115098;28;20031;-47
2023/06/14 02:06:47;;;;;;;11.57;4.50;;;17.80;80.70;;;;;;5115512;28;20019;-50
2023/06/14 02:09:13;;;;;;;7.95;4.95;;;17.90;81.00;;;;;;5115526;28;20102;-53
2023/06/14 02:11:38;;;;;;;6.78;4.30;;;17.80;80.70;;;;;;5115289;28;20019;-50
2023/06/14 02:14:04;;;;;;;5.53;4.47;;;17.80;80.90;;;;;;5113893;28;20039;-51
2023/06/14 02:16:30;;;;;;;4.70;4.25;;;17.80;81.00;;;;;;5115195;28;20081;-53
2023/06/14 02:18:56;;;;;;;8.23;4.72;;;17.80;81.00;;;;;;5115131;28;20079;-48
2023/06/14 02:21:22;;;;;;;12.93;4.88;;;17.80;80.90;;;;;;5114985;28;20063;-51
2023/06/14 02:23:47;;;;;;;4.80;4.30;;;17.80;80.90;;;;;;5114418;28;20048;-48
2023/06/14 02:26:13;;;;;;;10.68;4.57;;;17.80;80.90;;;;;;5115463;28;20055;-50
2023/06/14 02:28:38;;;;;;;5.00;4.15;;;17.70;81.30;;;;;;5114872;28;20032;-50
2023/06/14 02:31:04;;;;;;;9.18;4.95;;;17.60;81.20;;;;;;5114867;28;20032;-50
2023/06/14 02:33:29;;;;;;;7.03;4.50;;;17.60;81.70;;;;;;5114447;28;20020;-51
2023/06/14 02:35:56;;;;;;;10.15;5.38;;;17.60;81.70;;;;;;5114981;28;20035;-48
2023/06/14 02:38:21;;;;;;;11.65;5.15;;;17.50;81.70;;;;;;5114829;28;20046;-47
2023/06/14 02:40:47;;;;;;;12.85;4.68;;;17.40;82.10;;;;;;5114704;28;20487;-49
2023/06/14 02:43:12;;;;;;;12.05;4.85;;;17.40;82.10;;;;;;5114332;28;20452;-47
2023/06/14 02:45:38;;;;;;;5.97;4.53;;;17.40;82.30;;;;;;5114548;28;20457;-49
2023/06/14 02:48:03;;;;;;;6.72;4.35;;;17.40;82.60;;;;;;5114821;28;20122;-47
2023/06/14 02:50:30;;;;;;;6.72;4.57;;;17.40;82.60;;;;;;5114735;28;20114;-51
2023/06/14 02:52:56;;;;;;;6.53;4.28;;;17.30;82.90;;;;;;5114566;28;20020;-52
2023/06/14 02:55:22;;;;;;;6.28;4.50;;;17.30;83.00;;;;;;5114309;28;20099;-51
2023/06/14 02:57:48;;;;;;;7.13;4.75;;;17.30;83.00;;;;;;5114309;28;20157;-51
2023/06/14 03:00:14;;;;;;;8.13;4.78;;;17.30;82.90;;;;;;5114506;28;20390;-52
2023/06/14 03:02:39;;;;;;;5.47;4.35;;;17.20;83.00;;;;;;5113808;28;20159;-52
2023/06/14 03:05:06;;;;;;;8.48;4.97;;;17.20;82.90;;;;;;5113806;28;20491;-48
2023/06/14 03:07:32;;;;;;;5.05;4.38;;;17.20;83.30;;;;;;5113905;28;20019;-46
2023/06/14 03:09:58;;;;;;;7.38;3.88;;;17.30;83.20;;;;;;5114123;28;20031;-50
2023/06/14 03:12:23;;;;;;;10.25;5.20;;;17.30;83.20;;;;;;5113002;28;20059;-45
2023/06/14 03:14:50;;;;;;;6.30;5.07;;;17.30;83.60;;;;;;5113717;28;20023;-52
2023/06/14 03:17:17;;;;;;;5.70;4.93;;;17.30;83.40;;;;;;5114129;28;20446;-52
2023/06/14 03:19:43;;;;;;;6.22;4.18;;;17.30;83.50;;;;;;5114161;28;20024;-51
2023/06/14 03:22:08;;;;;;;4.93;4.43;;;17.30;83.90;;;;;;5113683;28;20035;-47
2023/06/14 03:24:36;;;;;;;12.02;6.43;;;17.30;84.10;;;;;;5113611;28;20031;-48
2023/06/14 03:27:02;;;;;;;5.55;4.72;;;17.20;84.00;;;;;;5113716;28;20443;-48
2023/06/14 03:29:27;;;;;;;8.07;4.53;;;17.20;84.10;;;;;;5095493;28;20024;-48
2023/06/14 03:32:02;;;;;;;9.70;4.82;;;17.20;84.00;;;;;;5113329;28;20019;-48
2023/06/14 03:34:27;;;;;;;8.70;4.68;;;17.20;84.10;;;;;;5113997;28;20469;-50
2023/06/14 03:36:53;;;;;;;11.80;4.60;;;17.20;84.30;;;;;;5113622;28;20019;-48
2023/06/14 03:39:19;;;;;;;12.98;5.03;;;17.10;84.30;;;;;;5113426;28;20030;-50
2023/06/14 03:41:45;;;;;;;7.72;4.45;;;17.20;84.60;;;;;;5112694;28;20340;-49
2023/06/14 03:44:11;;;;;;;7.65;4.53;;;17.20;84.50;;;;;;5112816;28;20023;-49
2023/06/14 03:46:36;;;;;;;7.53;5.43;;;17.10;84.40;;;;;;5112955;28;20027;-50
2023/06/14 03:49:02;;;;;;;7.13;4.45;;;17.20;84.60;;;;;;5113302;28;20039;-45
2023/06/14 03:51:28;;;;;;;9.25;5.03;;;17.20;84.60;;;;;;5113230;28;20022;-48
2023/06/14 03:53:55;;;;;;;6.50;4.57;;;17.20;84.50;;;;;;5112532;28;20530;-48
2023/06/14 03:56:21;;;;;;;9.05;4.85;;;17.20;84.60;;;;;;5113141;28;20437;-47
2023/06/14 03:58:46;;;;;;;10.18;4.40;;;17.20;84.50;;;;;;5113201;28;20019;-46
2023/06/14 04:01:12;;;;;;;11.85;4.75;;;17.30;84.50;;;;;;5112833;28;20111;-50
2023/06/14 04:03:40;;;;;;;6.28;4.10;;;17.20;84.70;;;;;;5093995;28;20376;-53
2023/06/14 04:06:06;;;;;;;6.50;3.75;;;17.20;85.00;;;;;;5112715;28;20546;-48
2023/06/14 04:08:31;;;;;;;9.10;5.00;;;17.20;84.90;;;;;;5112622;28;20407;-49
2023/06/14 04:10:57;;;;;;;6.55;4.63;;;17.10;85.10;;;;;;5112519;28;20027;-50
2023/06/14 04:13:23;;;;;;;12.27;4.50;;;17.10;85.40;;;;;;5111121;28;20055;-49
2023/06/14 04:15:48;;;;;;;5.45;4.00;;;17.10;85.60;;;;;;5112267;28;20020;-51
2023/06/14 04:18:14;;;;;;;7.18;4.28;;;17.10;85.70;;;;;;5112227;28;20031;-51
2023/06/14 04:20:40;;;;;;;6.03;4.53;;;17.10;85.80;;;;;;5111869;28;20707;-50
2023/06/14 04:23:21;;;;;;;9.05;4.72;;;17.10;85.90;;;;;;5112010;28;20024;-47
2023/06/14 04:25:47;;;;;;;11.38;4.65;;;17.20;85.70;;;;;;5111920;28;20028;-50
2023/06/14 04:28:15;;;;;;;8.27;4.40;;;17.20;85.80;;;;;;5112262;28;20452;-49
2023/06/14 04:30:47;;;;;;;7.65;4.00;;;17.30;85.80;;;;;;5112058;28;20024;-51
2023/06/14 04:33:13;;;;;;;11.23;4.28;;;17.30;85.90;;;;;;5111776;28;20102;-49
2023/06/14 04:35:40;;;;;;;6.82;4.22;;;17.40;86.00;;;;;;5111848;28;20103;-47
2023/06/14 04:38:09;;;;;;;5.32;3.80;;;17.40;86.30;;;;;;5112094;28;20026;-51
2023/06/14 04:40:36;;;;;;;7.00;4.22;;;17.50;85.60;;;;;;5112056;28;20024;-48
2023/06/14 04:43:04;;;;;;;26.33;4.80;;;17.60;85.60;;;;;;5111477;28;20038;-48
2023/06/14 04:45:31;;;;;;;10.20;3.92;;;17.80;85.40;;;;;;5111556;28;20019;-47
2023/06/14 04:47:59;;;;;;;5.75;3.72;;;18.00;85.30;;;;;;5111973;28;20022;-47
2023/06/14 04:50:24;;;;;;;10.40;4.75;;;18.20;84.20;;;;;;5111870;28;20080;-49
2023/06/14 04:52:51;;;;;;;9.10;4.20;;;18.30;84.00;;;;;;5093339;28;20027;-48
2023/06/14 04:55:16;;;;;;;7.85;3.70;;;18.60;83.50;;;;;;5111427;28;20012;-46
2023/06/14 04:57:42;;;;;;;11.52;4.18;;;19.10;81.90;;;;;;5093544;28;20570;-48
2023/06/14 05:00:10;;;;;;;9.48;3.92;;;19.60;80.50;;;;;;5112006;28;20159;-53
2023/06/14 05:02:37;;;;;;;8.38;4.00;;;19.90;79.40;;;;;;5111199;28;20023;-49
2023/06/14 05:05:06;;;;;;;4.75;3.75;;;20.30;78.40;;;;;;5111235;28;20020;-47
2023/06/14 05:07:33;;;;;;;7.05;4.30;;;20.50;77.50;;;;;;5111853;28;20567;-50
2023/06/14 05:09:59;;;;;;;9.55;4.40;;;20.80;76.90;;;;;;5112335;28;20035;-48
2023/06/14 05:12:24;;;;;;;10.38;3.47;;;21.00;76.40;;;;;;5110395;28;20020;-47
2023/06/14 05:14:50;;;;;;;5.22;4.10;;;21.20;76.30;;;;;;5111481;28;20020;-50
2023/06/14 05:17:16;;;;;;;8.45;4.18;;;21.60;75.30;;;;;;5111692;28;20108;-49
2023/06/14 05:19:42;;;;;;;6.68;4.10;;;21.90;74.50;;;;;;5111867;28;20041;-49
2023/06/14 05:22:08;;;;;;;7.60;3.60;;;21.90;74.30;;;;;;5111768;28;20065;-49
2023/06/14 05:24:33;;;;;;;11.48;3.95;;;22.00;74.20;;;;;;5111375;28;20034;-47
2023/06/14 05:26:59;;;;;;;9.45;4.15;;;22.10;73.70;;;;;;5111746;28;20024;-47
2023/06/14 05:29:24;;;;;;;7.70;3.97;;;22.00;74.10;;;;;;5111655;28;20034;-48
2023/06/14 05:31:50;;;;;;;8.82;4.18;;;22.40;73.50;;;;;;5117711;28;20019;-48
2023/06/14 05:34:16;;;;;;;6.00;3.42;;;22.40;73.30;;;;;;5118474;28;20045;-49
2023/06/14 05:36:41;;;;;;;9.30;3.67;;;22.50;72.90;;;;;;5118792;28;20016;-49
2023/06/14 05:39:08;;;;;;;9.25;3.47;;;22.80;72.30;;;;;;5119308;28;20023;-45
2023/06/14 05:41:33;;;;;;;4.82;3.47;;;23.00;72.40;;;;;;5118344;28;20046;-49
2023/06/14 05:44:00;;;;;;;7.28;3.45;;;23.30;71.10;;;;;;5117890;28;20027;-50
2023/06/14 05:46:26;;;;;;;6.00;3.33;;;23.50;71.10;;;;;;5119095;28;20051;-49
2023/06/14 05:48:52;;;;;;;4.50;3.80;;;23.90;69.90;;;;;;5119162;28;20051;-50
2023/06/14 05:51:19;;;;;;;9.07;4.15;;;23.50;69.80;;;;;;5118829;28;20028;-49
2023/06/14 05:53:48;;;;;;;10.75;4.50;;;23.40;70.40;;;;;;5117939;28;20030;-49
2023/06/14 05:56:14;;;;;;;9.73;3.50;;;23.30;70.90;;;;;;5118517;28;20023;-43
2023/06/14 05:58:40;;;;;;;8.90;3.50;;;22.90;71.00;;;;;;5118978;28;20028;-50
2023/06/14 06:01:05;;;;;;;12.45;3.58;;;22.60;71.60;;;;;;5118411;28;20031;-48
2023/06/14 06:03:32;;;;;;;7.95;5.45;;;22.80;71.50;;;;;;5117612;28;20019;-47
2023/06/14 06:05:57;;;;;;;5.47;3.85;;;22.80;71.50;;;;;;5118292;28;20020;-49
2023/06/14 06:08:23;;;;;;;8.52;3.15;;;23.10;70.90;;;;;;5118159;28;20055;-49
2023/06/14 06:10:48;;;;;;;13.27;3.63;;;23.30;70.30;;;;;;5118589;28;20108;-49
2023/06/14 06:13:14;;;;;;;11.60;3.72;;;23.50;70.60;;;;;;5116752;28;20028;-48
2023/06/14 06:15:40;;;;;;;5.60;3.65;;;23.70;70.40;;;;;;5117905;28;20020;-49
2023/06/14 06:18:06;;;;;;;6.45;3.53;;;23.60;69.90;;;;;;5118327;28;20491;-51
2023/06/14 06:20:32;;;;;;;8.65;3.58;;;23.60;70.10;;;;;;5118209;28;20015;-49
2023/06/14 06:23:00;;;;;;;15.30;4.03;;;23.50;69.90;;;;;;5117535;28;20406;-51
2023/06/14 06:25:26;;;;;;;8.23;3.50;;;23.50;70.00;;;;;;5117775;28;20155;-49
2023/06/14 06:27:53;;;;;;;6.80;3.30;;;23.80;69.80;;;;;;5118134;28;20016;-47
2023/06/14 06:30:20;;;;;;;7.32;3.20;;;24.40;69.40;;;;;;5118293;28;20027;-49
2023/06/14 06:32:46;;;;;;;4.75;3.67;;;24.50;68.60;;;;;;5117555;28;20016;-53
2023/06/14 06:35:12;;;;;;;6.43;3.17;;;24.20;68.50;;;;;;5117594;28;20106;-53
2023/06/14 06:37:38;;;;;;;3.30;3.00;;;24.00;69.10;;;;;;5117941;28;20047;-51
2023/06/14 06:40:05;;;;;;;12.35;5.13;;;24.40;69.50;;;;;;5118327;28;20031;-50
2023/06/14 06:42:31;;;;;;;9.50;2.80;;;24.80;68.40;;;;;;5114889;28;20034;-47
2023/06/14 06:44:57;;;;;;;6.82;3.10;;;24.80;67.50;;;;;;5114565;28;20032;-47
2023/06/14 06:47:23;;;;;;;5.20;3.47;;;25.10;67.90;;;;;;5114647;28;20403;-45
2023/06/14 06:49:48;;;;;;;9.32;3.75;;;25.10;67.50;;;;;;5114701;28;20027;-48
2023/06/14 06:52:14;;;;;;;6.30;3.60;;;25.60;67.60;;;;;;5095832;28;20065;-51
2023/06/14 06:54:39;;;;;;;8.02;3.47;;;25.60;65.90;;;;;;5114220;28;20027;-50
2023/06/14 06:57:06;;;;;;;10.15;3.65;;;25.30;66.60;;;;;;5114458;28;20386;-48
2023/06/14 06:59:31;;;;;;;5.07;3.30;;;25.60;66.80;;;;;;5114545;28;20023;-51
2023/06/14 07:01:57;;;;;;;4.75;2.92;;;26.20;66.20;;;;;;5113838;28;20032;-48
2023/06/14 07:04:22;;;;;;;6.57;2.92;;;26.40;65.70;;;;;;5113954;28;20024;-53
2023/06/14 07:06:48;;;;;;;6.50;3.50;;;26.20;65.50;;;;;;5114314;28;20028;-48
2023/06/14 07:09:15;;;;;;;7.43;3.33;;;26.00;65.40;;;;;;5114185;28;20027;-48
2023/06/14 07:11:42;;;;;;;5.75;2.92;;;25.70;66.00;;;;;;5113778;28;20402;-49
2023/06/14 07:14:08;;;;;;;7.85;3.53;;;25.90;66.70;;;;;;5112873;28;20026;-50
2023/06/14 07:16:33;;;;;;;8.00;3.60;;;26.20;66.40;;;;;;5114116;28;20024;-48
2023/06/14 07:19:00;;;;;;;4.57;2.92;;;26.80;65.70;;;;;;5114186;28;20032;-49
2023/06/14 07:21:26;;;;;;;6.22;3.15;;;26.70;65.10;;;;;;5113944;28;20051;-49
2023/06/14 07:23:55;;;;;;;4.90;3.20;;;26.90;64.80;;;;;;5113351;28;20485;-52
2023/06/14 07:26:21;;;;;;;5.57;3.00;;;26.60;64.80;;;;;;5113890;28;20032;-51
2023/06/14 07:28:48;;;;;;;7.43;2.72;;;27.30;64.20;;;;;;5113855;28;20376;-48
2023/06/14 07:31:15;;;;;;;7.38;2.88;;;27.20;64.10;;;;;;5113802;28;20027;-52
2023/06/14 07:33:41;;;;;;;13.55;3.28;;;26.80;64.10;;;;;;5113144;28;20382;-49
2023/06/14 07:36:06;;;;;;;6.22;2.90;;;26.80;64.60;;;;;;5113769;28;20027;-48
2023/06/14 07:38:32;;;;;;;9.43;3.22;;;26.70;64.50;;;;;;5113535;28;20028;-50
2023/06/14 07:40:58;;;;;;;6.15;3.50;;;27.30;64.50;;;;;;5113141;28;20046;-47
2023/06/14 07:43:23;;;;;;;4.68;2.50;;;27.20;63.80;;;;;;5112739;28;20112;-51
2023/06/14 07:45:49;;;;;;;5.60;2.90;;;27.20;63.70;;;;;;5113115;28;20038;-49
2023/06/14 07:48:14;;;;;;;5.00;2.55;;;26.80;63.70;;;;;;5113280;28;20221;-49
2023/06/14 07:50:40;;;;;;;8.45;3.30;;;26.40;64.40;;;;;;5113811;28;20092;-51
2023/06/14 07:53:06;;;;;;;7.90;3.08;;;26.70;64.40;;;;;;5113209;28;20020;-52
2023/06/14 07:55:33;;;;;;;4.70;2.60;;;26.50;63.10;;;;;;5112913;28;20046;-48
2023/06/14 07:57:58;;;;;;;2.53;2.08;;;26.50;63.10;;;;;;5113304;28;20024;-50
2023/06/14 08:00:24;;;;;;;4.20;2.53;;;27.10;63.10;;;;;;5113193;28;20030;-48
2023/06/14 08:02:51;;;;;;;10.70;2.58;;;27.40;62.20;;;;;;5110418;28;20483;-48
2023/06/14 08:05:17;;;;;;;6.28;3.08;;;26.90;61.90;;;;;;5108857;28;20399;-47
2023/06/14 08:07:43;;;;;;;9.35;2.63;;;26.80;63.30;;;;;;5113044;28;20023;-49
2023/06/14 08:10:08;;;;;;;3.55;2.40;;;27.20;62.60;;;;;;5112797;28;20046;-48
2023/06/14 08:12:34;;;;;;;1.50;1.30;;;27.10;62.20;;;;;;5111956;28;20028;-51
2023/06/14 08:15:00;;;;;;;1.63;1.52;;;26.80;61.90;;;;;;5108566;28;20020;-49
2023/06/14 08:17:26;;;;;;;2.25;2.10;;;26.50;61.60;;;;;;5092486;28;20024;-46
2023/06/14 08:19:54;;;;;;;2.88;1.77;;;25.70;62.80;;;;;;5092734;28;20024;-51
2023/06/14 08:22:21;;;;;;;3.17;2.28;;;25.10;64.00;;;;;;5091783;28;20031;-48
2023/06/14 08:24:47;;;;;;;2.50;2.30;;;25.00;64.90;;;;;;5100913;28;20027;-48
2023/06/14 08:27:13;;;;;;;6.15;2.00;;;24.80;65.30;;;;;;5112315;28;20032;-47
2023/06/14 08:29:40;;;;;;;7.55;2.10;;;25.00;65.40;;;;;;5105655;28;20526;-48
2023/06/14 08:32:06;;;;;;;6.82;2.25;;;25.10;64.70;;;;;;5091750;28;20020;-51
2023/06/14 08:34:32;;;;;;;4.30;2.25;;;24.90;64.30;;;;;;5087037;28;20467;-47
2023/06/14 08:36:57;;;;;;;9.15;1.98;;;24.70;65.50;;;;;;5111676;28;20052;-51
2023/06/14 08:39:23;;;;;;;2.03;1.92;;;24.50;65.60;;;;;;5099211;28;20142;-50
2023/06/14 08:41:48;;;;;;;2.35;2.15;;;24.40;65.40;;;;;;5091380;28;20028;-51
2023/06/14 08:44:16;;;;;;;2.40;2.20;;;24.30;65.60;;;;;;5104078;28;20031;-51
2023/06/14 08:46:42;;;;;;;10.07;2.53;;;24.20;66.30;;;;;;5091699;28;20299;-49
2023/06/14 08:49:11;;;;;;;2.30;2.10;;;24.20;66.60;;;;;;5091588;28;20023;-48
2023/06/14 08:51:37;;;;;;;5.00;1.70;;;24.20;66.40;;;;;;5091728;28;20119;-52
2023/06/14 08:54:03;;;;;;;2.38;1.80;;;24.50;66.70;;;;;;5107613;28;20023;-49
2023/06/14 08:56:30;;;;;;;2.22;2.10;;;24.60;65.70;;;;;;5091736;28;20092;-47
2023/06/14 08:59:01;;;;;;;1.70;1.60;;;24.40;65.00;;;;;;5091824;28;20025;-50
2023/06/14 09:01:26;;;;;;;4.18;2.00;;;24.30;66.10;;;;;;5091642;28;20518;-48
2023/06/14 09:03:54;;;;;;;5.70;1.80;;;24.20;66.60;;;;;;5090878;28;20036;-47
2023/06/14 09:06:22;;;;;;;5.28;1.80;;;24.20;66.30;;;;;;5091335;28;20077;-47
2023/06/14 09:08:48;;;;;;;4.70;1.98;;;24.10;67.30;;;;;;5091733;28;20046;-46
2023/06/14 09:11:18;;;;;;;5.20;2.15;;;23.80;68.40;;;;;;5073232;28;20095;-47
2023/06/14 09:13:45;;;;;;;2.10;1.90;;;24.10;67.90;;;;;;5090709;28;20016;-47
2023/06/14 09:16:11;;;;;;;13.13;1.92;;;24.20;66.80;;;;;;5091266;28;20025;-48
2023/06/14 09:18:43;;;;;;;5.72;2.15;;;24.30;66.60;;;;;;5091408;28;20026;-46
2023/06/14 09:21:09;;;;;;;1.98;1.55;;;24.40;67.50;;;;;;5092459;28;20499;-47
2023/06/14 09:23:38;;;;;;;2.15;1.60;;;24.50;65.90;;;;;;5113675;28;20081;-49
2023/06/14 09:26:08;;;;;;;6.05;2.55;;;24.40;66.50;;;;;;5111926;28;20032;-48
2023/06/14 09:28:34;;;;;;;29.25;16.88;;;24.30;66.60;;;;;;5111635;28;20107;-49
2023/06/14 09:31:00;;;;;;;6.15;4.75;;;24.30;65.90;;;;;;5108290;28;20103;-48
2023/06/14 09:33:27;;;;;;;8.25;2.08;;;24.40;66.90;;;;;;5090767;28;20382;-49
2023/06/14 09:35:54;;;;;;;3.58;1.63;;;24.60;66.80;;;;;;5105727;28;20052;-46
2023/06/14 09:38:20;;;;;;;3.97;2.47;;;24.80;66.20;;;;;;5106681;28;20031;-51
2023/06/14 09:40:45;;;;;;;3.80;2.10;;;24.60;66.40;;;;;;5110504;28;20382;-52
2023/06/14 09:43:11;;;;;;;2.90;1.83;;;24.60;66.40;;;;;;5110435;28;20028;-46
2023/06/14 09:45:40;;;;;;;5.13;2.03;;;24.60;66.40;;;;;;5111248;28;20035;-50
2023/06/14 09:48:08;;;;;;;3.05;1.50;;;24.50;66.40;;;;;;5111499;28;20495;-50
2023/06/14 09:50:34;;;;;;;6.30;2.30;;;24.40;66.60;;;;;;5111347;28;20022;-49
2023/06/14 09:53:06;;;;;;;1.90;1.80;;;24.40;66.60;;;;;;5103175;28;20016;-49
2023/06/14 09:55:36;;;;;;;2.03;1.75;;;24.30;67.20;;;;;;5090462;28;20081;-48
2023/06/14 09:58:05;;;;;;;4.13;1.73;;;24.10;67.40;;;;;;5096962;28;20016;-50
2023/06/14 10:00:33;;;;;;;6.60;1.98;;;23.80;67.70;;;;;;5107725;28;20397;-52
2023/06/14 10:03:05;;;;;;;6.22;1.63;;;23.60;67.80;;;;;;5096392;28;20016;-50
2023/06/14 10:05:31;;;;;;;5.25;2.00;;;23.60;67.80;;;;;;5104863;28;20024;-52
2023/06/14 10:08:03;;;;;;;6.28;1.48;;;23.60;67.00;;;;;;5110346;28;20369;-50
2023/06/14 10:10:29;;;;;;;2.22;2.03;;;23.70;66.40;;;;;;5110850;28;20098;-49
2023/06/14 10:12:55;;;;;;;1.27;1.13;;;23.90;66.10;;;;;;5110372;28;20120;-50
2023/06/14 10:15:52;;;;;;;1.50;1.40;;;23.70;65.80;;;;;;5110053;28;20099;-48
2023/06/14 10:18:28;;;;;;;2.05;1.63;;;23.90;65.50;;;;;;5090624;28;20110;-48
2023/06/14 10:21:16;;;;;;;2.75;1.60;;;24.00;66.50;;;;;;5112143;28;20020;-54
2023/06/14 10:23:44;;;;;;;3.15;1.42;;;23.80;66.80;;;;;;5114243;28;20657;-50
2023/06/14 10:26:19;;;;;;;1.60;1.50;;;23.90;66.60;;;;;;5112269;28;20365;-48
2023/06/14 10:28:59;;;;;;;3.22;1.95;;;23.90;67.20;;;;;;5105681;28;20031;-52
2023/06/14 10:31:43;;;;;;;3.38;1.90;;;24.10;66.70;;;;;;5114553;28;20015;-48
2023/06/14 10:34:09;;;;;;;1.80;1.70;;;24.10;66.00;;;;;;5110222;28;20012;-50
2023/06/14 10:36:35;;;;;;;3.28;1.60;;;24.00;66.20;;;;;;5101062;28;20072;-51
2023/06/14 10:39:08;;;;;;;3.45;1.70;;;23.50;66.90;;;;;;5113640;28;20027;-55
2023/06/14 10:41:54;;;;;;;1.98;1.65;;;23.30;67.70;;;;;;5114321;28;20080;-49
2023/06/14 10:44:20;;;;;;;2.85;1.70;;;23.30;67.40;;;;;;5113156;28;20026;-49
2023/06/14 10:46:55;;;;;;;2.30;2.10;;;23.40;67.60;;;;;;5109149;28;20019;-48
2023/06/14 10:49:41;;;;;;;1.80;1.58;;;23.40;67.90;;;;;;5114399;28;20028;-48
2023/06/14 10:52:11;;;;;;;6.78;2.00;;;23.60;67.20;;;;;;5113269;28;20023;-54
2023/06/14 10:54:37;;;;;;;3.20;2.20;;;23.70;67.80;;;;;;5113996;28;20011;-50
2023/06/14 10:57:07;;;;;;;4.35;2.10;;;23.80;66.70;;;;;;5113744;28;20020;-54
2023/06/14 10:59:33;;;;;;;4.90;2.10;;;23.90;67.50;;;;;;5114288;28;20179;-48
2023/06/14 11:02:26;;;;;;;3.80;2.10;;;23.80;67.30;;;;;;5094301;28;20058;-49
2023/06/14 11:04:52;;;;;;;4.43;2.00;;;23.80;67.50;;;;;;5111775;28;20496;-49
2023/06/14 11:10:41;;;;;;;2.22;1.98;;;23.90;67.20;;;;;;5109859;28;20041;-51
2023/06/14 11:13:08;;;;;;;5.38;2.88;;;23.80;67.20;;;;;;5113633;28;20031;-47
2023/06/14 11:15:36;;;;;;;2.55;1.80;;;23.60;68.10;;;;;;5108091;28;20055;-46
2023/06/14 11:18:06;;;;;;;3.03;2.17;;;23.50;68.10;;;;;;5114117;28;20016;-50
2023/06/14 11:20:38;;;;;;;4.55;1.95;;;23.50;68.20;;;;;;5111677;28;20080;-52
2023/06/14 11:23:04;;;;;;;2.53;1.70;;;23.50;68.00;;;;;;5126697;22;20519;-46
2023/06/14 11:25:30;;;;;;;12.85;2.70;;;23.70;71.50;;;;;;5112790;28;20012;-46
2023/06/14 11:27:56;;;;;;;1.80;1.70;;;23.70;68.00;;;;;;5113096;28;20498;-47
2023/06/14 11:30:22;;;;;;;6.22;2.20;;;23.60;68.00;;;;;;5113724;28;20039;-50
2023/06/14 11:32:53;;;;;;;4.20;1.98;;;23.40;67.80;;;;;;5113382;28;20019;-49
2023/06/14 11:35:19;;;;;;;2.05;1.92;;;23.20;67.60;;;;;;5113687;28;20451;-50
2023/06/14 11:37:45;;;;;;;2.33;1.90;;;23.30;68.00;;;;;;5095658;28;20026;-51
2023/06/14 11:40:11;;;;;;;3.63;1.88;;;23.40;67.90;;;;;;5114043;28;20024;-48
2023/06/14 11:42:40;;;;;;;2.10;1.90;;;23.50;68.10;;;;;;5113798;28;20034;-50
2023/06/14 11:45:10;;;;;;;7.07;1.98;;;23.50;67.30;;;;;;5113233;28;20031;-53
2023/06/14 11:47:38;;;;;;;6.20;1.48;;;23.60;67.30;;;;;;5113603;28;20031;-53
2023/06/14 11:50:05;;;;;;;4.18;2.00;;;23.70;67.50;;;;;;5113641;28;20073;-52
2023/06/14 11:52:31;;;;;;;2.08;1.90;;;23.80;67.80;;;;;;5113150;28;20028;-54
2023/06/14 11:54:58;;;;;;;1.77;1.67;;;23.80;68.50;;;;;;5094635;28;20019;-50
2023/06/14 11:57:24;;;;;;;2.25;1.92;;;23.60;67.60;;;;;;5113249;28;20039;-52
2023/06/14 11:59:49;;;;;;;13.88;2.03;;;23.50;67.80;;;;;;5112717;28;20052;-52
2023/06/14 12:02:16;;;;;;;2.78;1.60;;;23.60;68.10;;;;;;5112638;28;20019;-49
2023/06/14 12:04:42;;;;;;;2.17;1.55;;;23.60;67.70;;;;;;5094468;28;20028;-53
2023/06/14 12:07:14;;;;;;;3.17;1.40;;;23.70;67.30;;;;;;5113533;28;20106;-50
2023/06/14 12:09:43;;;;;;;1.83;1.67;;;23.70;67.30;;;;;;5094910;28;20399;-48
2023/06/14 12:12:08;;;;;;;4.35;2.17;;;23.80;66.70;;;;;;5112666;28;20491;-47
2023/06/14 12:14:34;;;;;;;1.98;1.40;;;23.70;67.20;;;;;;5112596;28;20047;-49
2023/06/14 12:17:06;;;;;;;1.65;1.55;;;23.80;66.90;;;;;;5113204;28;20428;-52
2023/06/14 12:19:32;;;;;;;4.40;1.50;;;23.90;67.60;;;;;;5113389;28;20035;-52
2023/06/14 12:22:01;;;;;;;4.30;1.70;;;23.90;66.60;;;;;;5093953;28;20553;-51
2023/06/14 12:24:29;;;;;;;3.00;1.67;;;24.00;67.40;;;;;;5111337;28;20061;-50
2023/06/14 12:26:59;;;;;;;3.05;2.00;;;24.00;67.70;;;;;;5094514;28;20391;-49
2023/06/14 12:29:25;;;;;;;2.60;1.52;;;24.10;67.30;;;;;;5112484;28;20394;-52
2023/06/14 12:31:50;;;;;;;7.25;1.90;;;24.00;67.60;;;;;;5111994;28;20075;-51
2023/06/14 12:34:16;;;;;;;2.63;1.73;;;23.90;67.40;;;;;;5093878;28;20426;-47
2023/06/14 12:36:44;;;;;;;1.80;1.70;;;23.80;67.00;;;;;;5094405;28;20092;-50
2023/06/14 12:39:10;;;;;;;2.72;1.63;;;23.80;67.40;;;;;;5112486;28;20030;-51
2023/06/14 12:41:36;;;;;;;3.08;2.13;;;23.80;67.60;;;;;;5103941;28;20020;-54
2023/06/14 12:44:04;;;;;;;15.85;2.05;;;23.80;66.70;;;;;;5111615;28;20019;-49
2023/06/14 12:46:31;;;;;;;5.05;2.08;;;23.80;67.90;;;;;;5111873;28;20023;-49
2023/06/14 12:48:56;;;;;;;3.55;2.22;;;23.90;67.00;;;;;;5112060;28;20023;-48